sensor_id;sensor_type;location;lat;lon;timestamp;pressure;altitude;pressure_sealevel;temperature;humidity
49040;BME280;36811;49.732;13.402;2023-02-11T00:01:05;99628.88;;;0.15;74.13
49040;BME280;36811;49.732;13.402;2023-02-11T00:03:32;99626.53;;;0.12;73.82
49040;BME280;36811;49.732;13.402;2023-02-11T00:05:59;99629.97;;;0.13;73.75
49040;BME280;36811;49.732;13.402;2023-02-11T00:08:25;99617.03;;;0.11;73.60
49040;BME280;36811;49.732;13.402;2023-02-11T00:10:52;99618.69;;;0.12;73.90
49040;BME280;36811;49.732;13.402;2023-02-11T00:13:18;99619.13;;;0.08;73.56
49040;BME280;36811;49.732;13.402;2023-02-11T00:15:44;99607.94;;;0.06;73.58
49040;BME280;36811;49.732;13.402;2023-02-11T00:18:09;99602.88;;;0.04;73.88
49040;BME280;36811;49.732;13.402;2023-02-11T00:20:37;99615.78;;;0.06;73.41
49040;BME280;36811;49.732;13.402;2023-02-11T00:23:03;99607.00;;;0.07;73.31
49040;BME280;36811;49.732;13.402;2023-02-11T00:25:29;99607.53;;;0.10;73.20
49040;BME280;36811;49.732;13.402;2023-02-11T00:27:55;99604.19;;;0.18;73.75
49040;BME280;36811;49.732;13.402;2023-02-11T00:30:20;99604.44;;;0.24;72.92
49040;BME280;36811;49.732;13.402;2023-02-11T00:32:46;99596.13;;;0.29;72.80
49040;BME280;36811;49.732;13.402;2023-02-11T00:35:11;99602.81;;;0.41;72.86
49040;BME280;36811;49.732;13.402;2023-02-11T00:37:37;99596.19;;;0.46;72.86
49040;BME280;36811;49.732;13.402;2023-02-11T00:40:04;99593.94;;;0.51;72.68
49040;BME280;36811;49.732;13.402;2023-02-11T00:42:30;99585.25;;;0.51;72.53
49040;BME280;36811;49.732;13.402;2023-02-11T00:44:55;99584.97;;;0.54;71.97
49040;BME280;36811;49.732;13.402;2023-02-11T00:47:21;99587.59;;;0.54;72.03
49040;BME280;36811;49.732;13.402;2023-02-11T00:49:47;99577.56;;;0.49;72.49
49040;BME280;36811;49.732;13.402;2023-02-11T00:52:12;99594.09;;;0.50;72.51
49040;BME280;36811;49.732;13.402;2023-02-11T00:54:38;99575.09;;;0.48;72.79
49040;BME280;36811;49.732;13.402;2023-02-11T00:57:04;99560.66;;;0.44;72.94
49040;BME280;36811;49.732;13.402;2023-02-11T00:59:30;99571.13;;;0.44;72.90
49040;BME280;36811;49.732;13.402;2023-02-11T01:01:56;99560.66;;;0.44;72.72
49040;BME280;36811;49.732;13.402;2023-02-11T01:04:21;99560.66;;;0.44;72.62
49040;BME280;36811;49.732;13.402;2023-02-11T01:06:47;99557.53;;;0.40;73.15
49040;BME280;36811;49.732;13.402;2023-02-11T01:09:13;99555.31;;;0.36;72.79
49040;BME280;36811;49.732;13.402;2023-02-11T01:11:39;99554.25;;;0.29;73.04
49040;BME280;36811;49.732;13.402;2023-02-11T01:14:04;99537.50;;;0.22;73.54
49040;BME280;36811;49.732;13.402;2023-02-11T01:16:30;99538.09;;;0.16;73.33
49040;BME280;36811;49.732;13.402;2023-02-11T01:18:56;99531.50;;;0.12;73.42
49040;BME280;36811;49.732;13.402;2023-02-11T01:21:24;99530.84;;;0.10;73.51
49040;BME280;36811;49.732;13.402;2023-02-11T01:23:50;99523.56;;;0.04;73.65
49040;BME280;36811;49.732;13.402;2023-02-11T01:26:18;99528.78;;;0.04;73.83
49040;BME280;36811;49.732;13.402;2023-02-11T01:28:44;99524.41;;;0.04;73.92
49040;BME280;36811;49.732;13.402;2023-02-11T01:31:09;99527.84;;;0.05;73.87
49040;BME280;36811;49.732;13.402;2023-02-11T01:33:35;99527.00;;;0.04;74.09
49040;BME280;36811;49.732;13.402;2023-02-11T01:36:02;99528.78;;;0.04;73.55
49040;BME280;36811;49.732;13.402;2023-02-11T01:38:29;99529.78;;;0.03;73.57
49040;BME280;36811;49.732;13.402;2023-02-11T01:40:59;99536.13;;;0.00;74.08
49040;BME280;36811;49.732;13.402;2023-02-11T01:43:27;99536.41;;;-0.03;74.07
49040;BME280;36811;49.732;13.402;2023-02-11T01:46:03;99529.13;;;-0.09;73.88
49040;BME280;36811;49.732;13.402;2023-02-11T01:48:38;99522.41;;;-0.12;73.98
49040;BME280;36811;49.732;13.402;2023-02-11T01:51:17;99524.47;;;-0.15;74.40
49040;BME280;36811;49.732;13.402;2023-02-11T01:53:45;99522.44;;;-0.21;74.13
49040;BME280;36811;49.732;13.402;2023-02-11T01:56:31;99531.13;;;-0.21;74.11
49040;BME280;36811;49.732;13.402;2023-02-11T01:59:43;99516.84;;;-0.26;74.28
49040;BME280;36811;49.732;13.402;2023-02-11T02:02:13;99513.69;;;-0.30;74.35
49040;BME280;36811;49.732;13.402;2023-02-11T02:04:45;99514.94;;;-0.34;74.94
49040;BME280;36811;49.732;13.402;2023-02-11T02:07:31;99519.34;;;-0.34;74.92
49040;BME280;36811;49.732;13.402;2023-02-11T02:10:03;99517.69;;;-0.35;74.78
49040;BME280;36811;49.732;13.402;2023-02-11T02:12:30;99509.16;;;-0.37;74.97
49040;BME280;36811;49.732;13.402;2023-02-11T02:21:12;99514.06;;;-0.25;74.80
49040;BME280;36811;49.732;13.402;2023-02-11T02:26:25;99481.13;;;-0.18;74.94
49040;BME280;36811;49.732;13.402;2023-02-11T02:32:32;99459.34;;;-0.09;74.88
49040;BME280;36811;49.732;13.402;2023-02-11T02:35:18;99451.88;;;-0.04;74.54
49040;BME280;36811;49.732;13.402;2023-02-11T02:38:00;99453.22;;;0.00;74.06
49040;BME280;36811;49.732;13.402;2023-02-11T02:40:49;99456.09;;;0.07;74.23
49040;BME280;36811;49.732;13.402;2023-02-11T02:43:17;99451.69;;;0.08;74.64
49040;BME280;36811;49.732;13.402;2023-02-11T02:45:43;99455.81;;;0.10;74.31
49040;BME280;36811;49.732;13.402;2023-02-11T02:48:30;99462.06;;;0.17;74.25
49040;BME280;36811;49.732;13.402;2023-02-11T02:56:33;99465.53;;;0.35;73.68
49040;BME280;36811;49.732;13.402;2023-02-11T02:59:17;99453.63;;;0.41;73.19
49040;BME280;36811;49.732;13.402;2023-02-11T03:05:09;99445.84;;;0.49;73.60
49040;BME280;36811;49.732;13.402;2023-02-11T03:07:40;99443.75;;;0.52;73.11
49040;BME280;36811;49.732;13.402;2023-02-11T03:10:20;99452.28;;;0.54;73.06
49040;BME280;36811;49.732;13.402;2023-02-11T03:12:49;99444.59;;;0.53;73.25
49040;BME280;36811;49.732;13.402;2023-02-11T03:15:19;99440.97;;;0.54;73.32
49040;BME280;36811;49.732;13.402;2023-02-11T03:17:47;99435.44;;;0.57;73.23
49040;BME280;36811;49.732;13.402;2023-02-11T03:20:16;99425.78;;;0.57;72.79
49040;BME280;36811;49.732;13.402;2023-02-11T03:25:43;99428.63;;;0.64;72.70
49040;BME280;36811;49.732;13.402;2023-02-11T03:30:56;99424.94;;;0.75;72.44
49040;BME280;36811;49.732;13.402;2023-02-11T03:33:33;99427.09;;;0.79;72.53
49040;BME280;36811;49.732;13.402;2023-02-11T03:36:06;99412.72;;;0.83;72.51
49040;BME280;36811;49.732;13.402;2023-02-11T03:38:38;99414.34;;;0.84;72.60
49040;BME280;36811;49.732;13.402;2023-02-11T03:41:09;99428.94;;;0.87;72.33
49040;BME280;36811;49.732;13.402;2023-02-11T03:43:41;99428.13;;;0.86;71.99
49040;BME280;36811;49.732;13.402;2023-02-11T03:46:09;99433.81;;;0.82;72.35
49040;BME280;36811;49.732;13.402;2023-02-11T03:48:43;99435.63;;;0.81;72.08
49040;BME280;36811;49.732;13.402;2023-02-11T03:51:11;99428.44;;;0.83;72.36
49040;BME280;36811;49.732;13.402;2023-02-11T03:53:40;99427.81;;;0.89;72.00
49040;BME280;36811;49.732;13.402;2023-02-11T03:56:10;99410.97;;;0.92;71.76
49040;BME280;36811;49.732;13.402;2023-02-11T03:58:39;99418.34;;;0.96;71.71
49040;BME280;36811;49.732;13.402;2023-02-11T04:01:05;99422.16;;;1.02;71.96
49040;BME280;36811;49.732;13.402;2023-02-11T04:03:34;99417.44;;;1.05;71.62
49040;BME280;36811;49.732;13.402;2023-02-11T04:06:00;99420.13;;;1.13;71.56
49040;BME280;36811;49.732;13.402;2023-02-11T04:08:26;99419.00;;;1.24;71.05
49040;BME280;36811;49.732;13.402;2023-02-11T04:10:52;99418.56;;;1.28;71.00
49040;BME280;36811;49.732;13.402;2023-02-11T04:13:17;99417.91;;;1.35;71.60
49040;BME280;36811;49.732;13.402;2023-02-11T04:15:43;99417.78;;;1.36;71.38
49040;BME280;36811;49.732;13.402;2023-02-11T04:18:09;99424.00;;;1.35;71.20
49040;BME280;36811;49.732;13.402;2023-02-11T04:20:35;99418.09;;;1.33;70.90
49040;BME280;36811;49.732;13.402;2023-02-11T04:23:00;99419.06;;;1.32;70.96
49040;BME280;36811;49.732;13.402;2023-02-11T04:25:26;99420.19;;;1.29;71.32
49040;BME280;36811;49.732;13.402;2023-02-11T04:27:52;99417.06;;;1.26;71.37
49040;BME280;36811;49.732;13.402;2023-02-11T04:30:17;99410.34;;;1.23;71.02
49040;BME280;36811;49.732;13.402;2023-02-11T04:32:43;99413.09;;;1.22;71.23
49040;BME280;36811;49.732;13.402;2023-02-11T04:35:09;99401.00;;;1.21;71.50
49040;BME280;36811;49.732;13.402;2023-02-11T04:37:35;99386.25;;;1.20;71.09
49040;BME280;36811;49.732;13.402;2023-02-11T04:40:01;99386.41;;;1.18;71.85
49040;BME280;36811;49.732;13.402;2023-02-11T04:42:27;99387.88;;;1.21;71.44
49040;BME280;36811;49.732;13.402;2023-02-11T04:44:52;99371.47;;;1.19;71.85
49040;BME280;36811;49.732;13.402;2023-02-11T04:47:18;99358.38;;;1.19;71.66
49040;BME280;36811;49.732;13.402;2023-02-11T04:49:43;99371.34;;;1.20;71.32
49040;BME280;36811;49.732;13.402;2023-02-11T04:52:09;99371.69;;;1.25;71.78
49040;BME280;36811;49.732;13.402;2023-02-11T04:54:35;99366.28;;;1.27;71.88
49040;BME280;36811;49.732;13.402;2023-02-11T04:57:01;99367.09;;;1.27;71.42
49040;BME280;36811;49.732;13.402;2023-02-11T04:59:27;99366.28;;;1.27;71.01
49040;BME280;36811;49.732;13.402;2023-02-11T05:01:53;99358.94;;;1.31;71.84
49040;BME280;36811;49.732;13.402;2023-02-11T05:04:19;99367.63;;;1.31;71.18
49040;BME280;36811;49.732;13.402;2023-02-11T05:06:44;99366.63;;;1.32;71.97
49040;BME280;36811;49.732;13.402;2023-02-11T05:09:12;99348.13;;;1.34;71.58
49040;BME280;36811;49.732;13.402;2023-02-11T05:11:38;99336.00;;;1.33;71.58
49040;BME280;36811;49.732;13.402;2023-02-11T05:14:05;99341.25;;;1.33;71.23
49040;BME280;36811;49.732;13.402;2023-02-11T05:16:32;99335.69;;;1.36;71.21
49040;BME280;36811;49.732;13.402;2023-02-11T05:18:58;99332.41;;;1.34;71.50
49040;BME280;36811;49.732;13.402;2023-02-11T05:21:25;99339.97;;;1.37;71.99
49040;BME280;36811;49.732;13.402;2023-02-11T05:23:50;99335.06;;;1.42;71.82
49040;BME280;36811;49.732;13.402;2023-02-11T05:26:17;99339.81;;;1.46;71.96
49040;BME280;36811;49.732;13.402;2023-02-11T05:28:43;99345.22;;;1.53;71.32
49040;BME280;36811;49.732;13.402;2023-02-11T05:31:10;99339.69;;;1.56;71.25
49040;BME280;36811;49.732;13.402;2023-02-11T05:33:36;99354.44;;;1.57;71.64
49040;BME280;36811;49.732;13.402;2023-02-11T05:36:05;99356.41;;;1.63;71.50
49040;BME280;36811;49.732;13.402;2023-02-11T05:38:32;99341.31;;;1.65;71.27
49040;BME280;36811;49.732;13.402;2023-02-11T05:40:58;99353.16;;;1.69;71.32
49040;BME280;36811;49.732;13.402;2023-02-11T05:43:24;99352.84;;;1.72;71.28
49040;BME280;36811;49.732;13.402;2023-02-11T05:45:49;99356.13;;;1.74;71.19
49040;BME280;36811;49.732;13.402;2023-02-11T05:48:15;99364.31;;;1.79;71.08
49040;BME280;36811;49.732;13.402;2023-02-11T05:50:41;99370.88;;;1.83;70.98
49040;BME280;36811;49.732;13.402;2023-02-11T05:53:07;99363.00;;;1.83;70.85
49040;BME280;36811;49.732;13.402;2023-02-11T05:55:33;99363.31;;;1.80;70.81
49040;BME280;36811;49.732;13.402;2023-02-11T05:57:59;99347.25;;;1.75;70.87
49040;BME280;36811;49.732;13.402;2023-02-11T06:00:24;99341.66;;;1.70;70.69
49040;BME280;36811;49.732;13.402;2023-02-11T06:02:50;99347.09;;;1.68;70.96
49040;BME280;36811;49.732;13.402;2023-02-11T06:05:16;99336.56;;;1.60;70.73
49040;BME280;36811;49.732;13.402;2023-02-11T06:07:42;99349.69;;;1.60;70.97
49040;BME280;36811;49.732;13.402;2023-02-11T06:10:08;99333.47;;;1.57;71.06
49040;BME280;36811;49.732;13.402;2023-02-11T06:12:35;99336.53;;;1.52;71.58
49040;BME280;36811;49.732;13.402;2023-02-11T06:15:01;99333.44;;;1.49;71.46
49040;BME280;36811;49.732;13.402;2023-02-11T06:17:27;99334.25;;;1.49;71.18
49040;BME280;36811;49.732;13.402;2023-02-11T06:19:57;99330.81;;;1.49;71.55
49040;BME280;36811;49.732;13.402;2023-02-11T06:22:23;99317.72;;;1.49;71.65
49040;BME280;36811;49.732;13.402;2023-02-11T06:24:48;99313.13;;;1.51;71.43
49040;BME280;36811;49.732;13.402;2023-02-11T06:27:14;99312.94;;;1.52;71.35
49040;BME280;36811;49.732;13.402;2023-02-11T06:29:39;99306.56;;;1.55;71.22
49040;BME280;36811;49.732;13.402;2023-02-11T06:32:05;99301.66;;;1.52;71.52
49040;BME280;36811;49.732;13.402;2023-02-11T06:34:30;99306.06;;;1.51;71.51
49040;BME280;36811;49.732;13.402;2023-02-11T06:36:56;99299.34;;;1.49;71.81
49040;BME280;36811;49.732;13.402;2023-02-11T06:39:22;99305.44;;;1.49;71.40
49040;BME280;36811;49.732;13.402;2023-02-11T06:41:47;99305.44;;;1.49;71.59
49040;BME280;36811;49.732;13.402;2023-02-11T06:44:13;99328.88;;;1.59;71.11
49040;BME280;36811;49.732;13.402;2023-02-11T06:46:38;99333.97;;;1.68;71.07
49040;BME280;36811;49.732;13.402;2023-02-11T06:49:04;99337.09;;;1.72;71.31
49040;BME280;36811;49.732;13.402;2023-02-11T06:51:29;99342.03;;;1.83;71.32
49040;BME280;36811;49.732;13.402;2023-02-11T06:53:55;99351.91;;;1.97;70.84
49040;BME280;36811;49.732;13.402;2023-02-11T06:56:23;99342.41;;;2.12;70.49
49040;BME280;36811;49.732;13.402;2023-02-11T06:58:53;99343.06;;;2.22;70.24
49040;BME280;36811;49.732;13.402;2023-02-11T07:01:23;99355.84;;;2.41;70.12
49040;BME280;36811;49.732;13.402;2023-02-11T07:03:50;99337.13;;;2.52;69.86
49040;BME280;36811;49.732;13.402;2023-02-11T07:06:19;99326.63;;;2.52;69.80
49040;BME280;36811;49.732;13.402;2023-02-11T07:08:46;99343.16;;;2.61;69.44
49040;BME280;36811;49.732;13.402;2023-02-11T07:11:17;99337.72;;;2.79;69.22
49040;BME280;36811;49.732;13.402;2023-02-11T07:13:44;99349.56;;;2.83;69.19
49040;BME280;36811;49.732;13.402;2023-02-11T07:16:14;99358.59;;;2.80;68.97
49040;BME280;36811;49.732;13.402;2023-02-11T07:18:41;99355.13;;;2.80;68.79
49040;BME280;36811;49.732;13.402;2023-02-11T07:21:10;99362.38;;;2.78;68.92
49040;BME280;36811;49.732;13.402;2023-02-11T07:23:37;99360.06;;;2.75;68.97
49040;BME280;36811;49.732;13.402;2023-02-11T07:26:08;99334.31;;;2.70;69.05
49040;BME280;36811;49.732;13.402;2023-02-11T07:28:35;99341.53;;;2.68;69.14
49040;BME280;36811;49.732;13.402;2023-02-11T07:31:28;99351.53;;;2.73;69.44
49040;BME280;36811;49.732;13.402;2023-02-11T07:33:57;99360.56;;;2.78;69.77
49040;BME280;36811;49.732;13.402;2023-02-11T07:36:24;99367.94;;;2.91;69.74
49040;BME280;36811;49.732;13.402;2023-02-11T07:38:49;99377.28;;;2.93;69.73
49040;BME280;36811;49.732;13.402;2023-02-11T07:41:18;99373.00;;;2.92;69.39
49040;BME280;36811;49.732;13.402;2023-02-11T07:43:45;99380.38;;;2.97;69.47
49040;BME280;36811;49.732;13.402;2023-02-11T07:46:23;99387.44;;;2.96;69.67
49040;BME280;36811;49.732;13.402;2023-02-11T07:48:49;99401.25;;;2.98;69.63
49040;BME280;36811;49.732;13.402;2023-02-11T07:51:18;99387.09;;;3.07;69.73
49040;BME280;36811;49.732;13.402;2023-02-11T07:53:45;99389.72;;;3.15;69.27
49040;BME280;36811;49.732;13.402;2023-02-11T07:56:12;99389.19;;;3.28;69.29
49040;BME280;36811;49.732;13.402;2023-02-11T07:58:39;99386.69;;;3.35;69.06
49040;BME280;36811;49.732;13.402;2023-02-11T08:01:12;99390.13;;;3.43;69.16
49040;BME280;36811;49.732;13.402;2023-02-11T08:03:39;99387.78;;;3.48;69.03
49040;BME280;36811;49.732;13.402;2023-02-11T08:06:09;99373.94;;;3.54;68.72
49040;BME280;36811;49.732;13.402;2023-02-11T08:08:35;99383.13;;;3.58;68.80
49040;BME280;36811;49.732;13.402;2023-02-11T08:11:16;99377.69;;;3.60;69.15
49040;BME280;36811;49.732;13.402;2023-02-11T08:13:42;99371.78;;;3.58;69.21
49040;BME280;36811;49.732;13.402;2023-02-11T08:16:17;99378.69;;;3.59;69.71
49040;BME280;36811;49.732;13.402;2023-02-11T08:18:44;99371.75;;;3.66;69.97
49040;BME280;36811;49.732;13.402;2023-02-11T08:21:10;99368.13;;;3.67;69.61
49040;BME280;36811;49.732;13.402;2023-02-11T08:23:38;99362.72;;;3.60;70.36
49040;BME280;36811;49.732;13.402;2023-02-11T08:26:06;99359.75;;;3.63;70.26
49040;BME280;36811;49.732;13.402;2023-02-11T08:28:37;99362.22;;;3.65;70.63
49040;BME280;36811;49.732;13.402;2023-02-11T08:31:12;99355.78;;;3.67;70.51
49040;BME280;36811;49.732;13.402;2023-02-11T08:33:39;99366.19;;;3.61;70.88
49040;BME280;36811;49.732;13.402;2023-02-11T08:36:16;99371.75;;;3.66;71.00
49040;BME280;36811;49.732;13.402;2023-02-11T08:38:42;99368.25;;;3.73;70.86
49040;BME280;36811;49.732;13.402;2023-02-11T08:41:08;99376.47;;;3.78;70.93
49040;BME280;36811;49.732;13.402;2023-02-11T08:43:35;99365.06;;;3.86;71.07
49040;BME280;36811;49.732;13.402;2023-02-11T08:46:02;99367.06;;;3.84;71.47
49040;BME280;36811;49.732;13.402;2023-02-11T08:48:28;99378.47;;;3.99;71.06
49040;BME280;36811;49.732;13.402;2023-02-11T08:50:55;99373.47;;;4.12;70.79
49040;BME280;36811;49.732;13.402;2023-02-11T08:53:20;99380.09;;;4.23;70.25
49040;BME280;36811;49.732;13.402;2023-02-11T08:55:54;99378.28;;;4.23;70.37
49040;BME280;36811;49.732;13.402;2023-02-11T08:58:20;99378.19;;;4.39;69.89
49040;BME280;36811;49.732;13.402;2023-02-11T09:00:47;99370.56;;;4.44;69.33
49040;BME280;36811;49.732;13.402;2023-02-11T09:03:14;99372.66;;;4.49;69.43
49040;BME280;36811;49.732;13.402;2023-02-11T09:05:45;99369.03;;;4.50;69.35
49040;BME280;36811;49.732;13.402;2023-02-11T09:08:13;99377.59;;;4.52;69.04
49040;BME280;36811;49.732;13.402;2023-02-11T09:10:39;99370.25;;;4.62;69.38
49040;BME280;36811;49.732;13.402;2023-02-11T09:13:05;99376.50;;;4.61;68.73
49040;BME280;36811;49.732;13.402;2023-02-11T09:15:31;99370.59;;;4.59;68.99
49040;BME280;36811;49.732;13.402;2023-02-11T09:17:57;99369.22;;;4.63;69.38
49040;BME280;36811;49.732;13.402;2023-02-11T09:20:25;99359.19;;;4.81;68.73
49040;BME280;36811;49.732;13.402;2023-02-11T09:22:52;99382.75;;;4.83;69.01
49040;BME280;36811;49.732;13.402;2023-02-11T09:25:17;99371.81;;;4.86;68.32
49040;BME280;36811;49.732;13.402;2023-02-11T09:27:43;99376.38;;;4.92;68.75
49040;BME280;36811;49.732;13.402;2023-02-11T09:30:09;99382.28;;;5.08;68.44
49040;BME280;36811;49.732;13.402;2023-02-11T09:32:35;99382.69;;;5.05;68.06
49040;BME280;36811;49.732;13.402;2023-02-11T09:35:01;99389.41;;;5.08;67.95
49040;BME280;36811;49.732;13.402;2023-02-11T09:37:26;99382.94;;;5.10;67.49
49040;BME280;36811;49.732;13.402;2023-02-11T09:39:52;99380.47;;;5.09;67.92
49040;BME280;36811;49.732;13.402;2023-02-11T09:42:40;99399.13;;;5.07;67.80
49040;BME280;36811;49.732;13.402;2023-02-11T09:45:21;99395.03;;;5.05;67.92
49040;BME280;36811;49.732;13.402;2023-02-11T09:47:53;99393.03;;;4.92;68.10
49040;BME280;36811;49.732;13.402;2023-02-11T09:50:30;99387.56;;;4.94;67.59
49040;BME280;36811;49.732;13.402;2023-02-11T09:53:04;99401.00;;;4.84;68.20
49040;BME280;36811;49.732;13.402;2023-02-11T09:55:46;99406.38;;;4.91;68.10
49040;BME280;36811;49.732;13.402;2023-02-11T09:58:27;99410.75;;;4.98;68.34
49040;BME280;36811;49.732;13.402;2023-02-11T10:06:52;99403.84;;;5.12;68.16
49040;BME280;36811;49.732;13.402;2023-02-11T10:09:39;99404.97;;;5.18;67.83
49040;BME280;36811;49.732;13.402;2023-02-11T10:17:40;99414.41;;;5.27;67.87
49040;BME280;36811;49.732;13.402;2023-02-11T10:22:43;99397.75;;;5.55;67.65
49040;BME280;36811;49.732;13.402;2023-02-11T10:25:22;99405.88;;;5.54;67.33
49040;BME280;36811;49.732;13.402;2023-02-11T10:27:49;99395.50;;;5.38;67.19
49040;BME280;36811;49.732;13.402;2023-02-11T10:30:51;99403.69;;;5.43;67.08
49040;BME280;36811;49.732;13.402;2023-02-11T10:36:30;99398.97;;;5.24;67.26
49040;BME280;36811;49.732;13.402;2023-02-11T10:38:59;99407.59;;;5.18;67.82
49040;BME280;36811;49.732;13.402;2023-02-11T10:41:32;99407.88;;;5.23;67.36
49040;BME280;36811;49.732;13.402;2023-02-11T10:44:00;99399.69;;;5.18;67.55
49040;BME280;36811;49.732;13.402;2023-02-11T10:46:31;99391.59;;;5.19;67.60
49040;BME280;36811;49.732;13.402;2023-02-11T10:48:59;99387.69;;;5.15;67.76
49040;BME280;36811;49.732;13.402;2023-02-11T10:51:30;99387.22;;;5.11;68.04
49040;BME280;36811;49.732;13.402;2023-02-11T10:56:32;99378.22;;;5.21;67.29
49040;BME280;36811;49.732;13.402;2023-02-11T10:59:04;99369.22;;;5.15;67.82
49040;BME280;36811;49.732;13.402;2023-02-11T11:01:42;99381.50;;;5.23;67.64
49040;BME280;36811;49.732;13.402;2023-02-11T11:04:39;99388.78;;;5.21;67.77
49040;BME280;36811;49.732;13.402;2023-02-11T11:07:22;99369.50;;;5.05;67.73
49040;BME280;36811;49.732;13.402;2023-02-11T11:10:10;99376.03;;;5.09;68.24
49040;BME280;36811;49.732;13.402;2023-02-11T11:12:50;99380.66;;;5.22;67.89
49040;BME280;36811;49.732;13.402;2023-02-11T11:15:25;99370.22;;;5.29;68.02
49040;BME280;36811;49.732;13.402;2023-02-11T11:18:12;99355.66;;;5.33;67.73
49040;BME280;36811;49.732;13.402;2023-02-11T11:21:03;99344.28;;;5.32;68.02
49040;BME280;36811;49.732;13.402;2023-02-11T11:23:29;99358.28;;;5.33;68.16
49040;BME280;36811;49.732;13.402;2023-02-11T11:26:06;99361.66;;;5.27;67.58
49040;BME280;36811;49.732;13.402;2023-02-11T11:28:42;99362.19;;;5.22;67.94
49040;BME280;36811;49.732;13.402;2023-02-11T11:31:19;99369.41;;;5.28;67.86
49040;BME280;36811;49.732;13.402;2023-02-11T11:33:47;99369.50;;;5.20;68.13
49040;BME280;36811;49.732;13.402;2023-02-11T11:36:20;99363.59;;;5.18;68.45
49040;BME280;36811;49.732;13.402;2023-02-11T11:38:53;99357.94;;;5.21;68.77
49040;BME280;36811;49.732;13.402;2023-02-11T11:41:26;99356.94;;;5.22;68.65
49040;BME280;36811;49.732;13.402;2023-02-11T11:46:42;99340.47;;;5.20;68.92
49040;BME280;36811;49.732;13.402;2023-02-11T11:51:35;99347.88;;;5.60;68.58
49040;BME280;36811;49.732;13.402;2023-02-11T11:54:11;99343.19;;;5.77;68.13
49040;BME280;36811;49.732;13.402;2023-02-11T11:56:53;99328.38;;;5.76;67.38
49040;BME280;36811;49.732;13.402;2023-02-11T11:59:23;99334.22;;;5.57;67.99
49040;BME280;36811;49.732;13.402;2023-02-11T12:02:06;99342.91;;;5.51;68.05
49040;BME280;36811;49.732;13.402;2023-02-11T12:07:34;99353.38;;;5.15;69.17
49040;BME280;36811;49.732;13.402;2023-02-11T12:12:37;99345.28;;;5.17;69.29
49040;BME280;36811;49.732;13.402;2023-02-11T12:28:24;99333.28;;;5.29;68.88
49040;BME280;36811;49.732;13.402;2023-02-11T12:31:01;99334.19;;;5.36;69.07
49040;BME280;36811;49.732;13.402;2023-02-11T12:36:07;99322.03;;;5.56;68.00
49040;BME280;36811;49.732;13.402;2023-02-11T12:42:23;99313.75;;;5.59;67.85
49040;BME280;36811;49.732;13.402;2023-02-11T12:53:16;99302.75;;;5.91;66.90
49040;BME280;36811;49.732;13.402;2023-02-11T12:55:48;99306.63;;;5.95;66.65
49040;BME280;36811;49.732;13.402;2023-02-11T12:58:20;99292.50;;;6.03;66.32
49040;BME280;36811;49.732;13.402;2023-02-11T13:00:55;99312.75;;;5.96;66.85
49040;BME280;36811;49.732;13.402;2023-02-11T13:03:30;99301.25;;;6.03;66.89
49040;BME280;36811;49.732;13.402;2023-02-11T13:06:01;99296.78;;;6.04;66.67
49040;BME280;36811;49.732;13.402;2023-02-11T13:08:31;99293.00;;;6.13;66.67
49040;BME280;36811;49.732;13.402;2023-02-11T13:11:01;99303.22;;;6.22;66.34
49040;BME280;36811;49.732;13.402;2023-02-11T13:13:38;99296.13;;;6.23;66.29
49040;BME280;36811;49.732;13.402;2023-02-11T13:16:37;99304.84;;;6.17;66.48
49040;BME280;36811;49.732;13.402;2023-02-11T13:24:43;99292.13;;;6.27;66.23
49040;BME280;36811;49.732;13.402;2023-02-11T13:27:19;99297.41;;;6.27;66.39
49040;BME280;36811;49.732;13.402;2023-02-11T13:38:28;99317.34;;;6.08;66.74
49040;BME280;36811;49.732;13.402;2023-02-11T13:41:01;99313.06;;;6.07;67.25
49040;BME280;36811;49.732;13.402;2023-02-11T13:43:31;99301.84;;;6.05;66.82
49040;BME280;36811;49.732;13.402;2023-02-11T13:46:05;99296.00;;;6.10;67.36
49040;BME280;36811;49.732;13.402;2023-02-11T13:48:34;99291.38;;;6.12;66.71
49040;BME280;36811;49.732;13.402;2023-02-11T13:51:06;99292.94;;;6.06;67.26
49040;BME280;36811;49.732;13.402;2023-02-11T13:53:46;99293.88;;;5.99;67.48
49040;BME280;36811;49.732;13.402;2023-02-11T13:56:34;99293.69;;;6.00;67.64
49040;BME280;36811;49.732;13.402;2023-02-11T13:59:45;99301.94;;;5.91;67.62
49040;BME280;36811;49.732;13.402;2023-02-11T14:05:02;99296.03;;;5.89;68.17
49040;BME280;36811;49.732;13.402;2023-02-11T14:10:59;99285.75;;;5.79;68.39
49040;BME280;36811;49.732;13.402;2023-02-11T14:13:32;99290.53;;;5.90;68.36
49040;BME280;36811;49.732;13.402;2023-02-11T14:16:22;99292.69;;;6.01;68.29
49040;BME280;36811;49.732;13.402;2023-02-11T14:24:38;99297.59;;;6.04;68.32
49040;BME280;36811;49.732;13.402;2023-02-11T14:32:46;99291.00;;;5.94;68.28
49040;BME280;36811;49.732;13.402;2023-02-11T14:43:22;99300.47;;;5.88;68.82
49040;BME280;36811;49.732;13.402;2023-02-11T14:45:52;99305.03;;;5.79;68.88
49040;BME280;36811;49.732;13.402;2023-02-11T14:48:22;99301.34;;;5.74;69.06
49040;BME280;36811;49.732;13.402;2023-02-11T14:53:28;99297.69;;;5.75;69.29
49040;BME280;36811;49.732;13.402;2023-02-11T14:55:55;99292.03;;;5.78;69.06
49040;BME280;36811;49.732;13.402;2023-02-11T14:58:26;99290.84;;;5.81;69.36
49040;BME280;36811;49.732;13.402;2023-02-11T15:01:04;99291.41;;;5.76;69.44
49040;BME280;36811;49.732;13.402;2023-02-11T15:03:37;99295.03;;;5.75;69.33
49040;BME280;36811;49.732;13.402;2023-02-11T15:06:28;99290.78;;;5.74;69.63
49040;BME280;36811;49.732;13.402;2023-02-11T15:08:56;99293.66;;;5.79;69.69
49040;BME280;36811;49.732;13.402;2023-02-11T15:11:28;99297.69;;;5.75;69.84
49040;BME280;36811;49.732;13.402;2023-02-11T15:13:57;99299.13;;;5.77;69.89
49040;BME280;36811;49.732;13.402;2023-02-11T15:16:26;99291.66;;;5.81;69.77
49040;BME280;36811;49.732;13.402;2023-02-11T15:18:56;99294.03;;;5.76;69.92
49040;BME280;36811;49.732;13.402;2023-02-11T15:21:29;99297.31;;;5.78;69.76
49040;BME280;36811;49.732;13.402;2023-02-11T15:24:04;99300.94;;;5.77;69.61